createdAt,value
2018-09-20T00:00:56.195Z,99.90
2018-09-20T00:02:00.527Z,99.90
2018-09-20T00:03:04.789Z,99.90
2018-09-20T00:04:09.312Z,99.90
2018-09-20T00:05:13.998Z,99.90
2018-09-20T00:06:18.406Z,99.90
2018-09-20T00:07:22.856Z,99.90
2018-09-20T00:08:27.203Z,99.90
2018-09-20T00:09:31.546Z,99.90
2018-09-20T00:10:35.749Z,99.90
2018-09-20T00:11:40.481Z,99.90
2018-09-20T00:12:45.243Z,99.90
2018-09-20T00:13:49.676Z,99.90
2018-09-20T00:14:54.326Z,99.90
2018-09-20T00:15:58.658Z,99.90
2018-09-20T00:17:03.210Z,99.90
2018-09-20T00:18:07.730Z,99.90
2018-09-20T00:19:11.967Z,99.90
2018-09-20T00:20:16.616Z,99.90
2018-09-20T00:21:21.164Z,99.90
2018-09-20T00:22:25.704Z,99.90
2018-09-20T00:23:30.174Z,99.90
2018-09-20T00:24:34.448Z,99.90
2018-09-20T00:25:38.909Z,99.90
2018-09-20T00:26:43.539Z,99.90
2018-09-20T00:27:48.397Z,99.90
2018-09-20T00:28:53.113Z,99.90
2018-09-20T00:29:57.678Z,99.90
2018-09-20T00:31:02.084Z,99.90
2018-09-20T00:32:06.327Z,99.90
2018-09-20T00:33:10.513Z,99.90
2018-09-20T00:34:15.092Z,99.90
2018-09-20T00:35:19.478Z,99.90
2018-09-20T00:36:23.963Z,99.90
2018-09-20T00:37:28.727Z,99.90
2018-09-20T00:38:32.940Z,99.90
2018-09-20T00:39:37.221Z,99.90
2018-09-20T00:40:41.530Z,99.90
2018-09-20T00:41:45.832Z,99.90
2018-09-20T00:42:50.922Z,99.90
2018-09-20T00:43:55.467Z,99.90
2018-09-20T00:45:00.005Z,99.90
2018-09-20T00:46:04.284Z,99.90
2018-09-20T00:47:08.716Z,99.90
2018-09-20T00:48:13.579Z,99.90
2018-09-20T00:49:18.019Z,99.90
2018-09-20T00:50:22.349Z,99.90
2018-09-20T00:51:26.790Z,99.90
2018-09-20T00:52:31.227Z,99.90
2018-09-20T00:53:35.627Z,99.90
2018-09-20T00:54:39.780Z,99.90
2018-09-20T00:55:44.150Z,99.90
2018-09-20T00:56:48.426Z,99.90
2018-09-20T00:57:52.891Z,99.90
2018-09-20T00:58:57.248Z,99.90
2018-09-20T01:00:01.679Z,99.90
2018-09-20T01:01:06.333Z,99.90
2018-09-20T01:02:10.782Z,99.90
2018-09-20T01:03:14.916Z,99.90
2018-09-20T01:04:19.105Z,99.90
2018-09-20T01:05:23.633Z,99.90
2018-09-20T01:06:28.106Z,99.90
2018-09-20T01:07:32.434Z,99.90
2018-09-20T01:08:36.758Z,99.90
2018-09-20T01:09:41.065Z,99.90
2018-09-20T01:10:45.147Z,99.90
2018-09-20T01:11:49.541Z,99.90
2018-09-20T01:12:53.730Z,99.90
2018-09-20T01:13:57.914Z,99.90
2018-09-20T01:15:02.167Z,99.90
2018-09-20T01:16:06.991Z,99.90
2018-09-20T01:17:11.296Z,99.90
2018-09-20T01:18:15.761Z,99.90
2018-09-20T01:19:20.011Z,99.90
2018-09-20T01:20:24.368Z,99.90
2018-09-20T01:21:28.678Z,99.90
2018-09-20T01:22:32.839Z,99.90
2018-09-20T01:23:37.237Z,99.90
2018-09-20T01:24:41.394Z,99.90
2018-09-20T01:25:45.635Z,99.90
2018-09-20T01:26:50.054Z,99.90
2018-09-20T01:27:54.267Z,99.90
2018-09-20T01:28:58.759Z,99.90
2018-09-20T01:30:03.145Z,99.90
2018-09-20T01:31:07.338Z,99.90
2018-09-20T01:32:11.481Z,99.90
2018-09-20T01:33:15.585Z,99.90
2018-09-20T01:34:19.725Z,99.90
2018-09-20T01:35:24.051Z,99.90
2018-09-20T01:36:28.143Z,99.90
2018-09-20T01:37:32.295Z,99.90
2018-09-20T01:38:36.769Z,99.90
2018-09-20T01:39:41.487Z,99.90
2018-09-20T01:40:45.932Z,99.90
2018-09-20T01:41:50.328Z,99.90
2018-09-20T01:42:54.755Z,99.90
2018-09-20T01:43:58.841Z,99.90
2018-09-20T01:45:03.016Z,99.90
2018-09-20T01:46:07.231Z,99.90
2018-09-20T01:47:11.547Z,99.90
2018-09-20T01:48:15.846Z,99.90
2018-09-20T01:49:20.626Z,99.90
2018-09-20T01:50:24.982Z,99.90
2018-09-20T01:51:29.467Z,99.90
2018-09-20T01:52:33.652Z,99.90
2018-09-20T01:53:37.956Z,99.90
2018-09-20T01:54:42.233Z,99.90
2018-09-20T01:55:46.520Z,99.90
2018-09-20T01:56:50.776Z,99.90
2018-09-20T01:57:54.918Z,99.90
2018-09-20T01:58:59.007Z,99.90
2018-09-20T02:00:03.294Z,99.90
2018-09-20T02:01:07.765Z,99.90
2018-09-20T02:02:11.927Z,99.90
2018-09-20T02:03:16.296Z,99.90
2018-09-20T02:04:20.577Z,99.90
2018-09-20T02:05:24.888Z,99.90
2018-09-20T02:06:29.197Z,99.90
2018-09-20T02:07:33.373Z,99.90
2018-09-20T02:08:37.803Z,99.90
2018-09-20T02:09:42.317Z,99.90
2018-09-20T02:10:46.688Z,99.90
2018-09-20T02:11:51.077Z,99.90
2018-09-20T02:12:55.393Z,99.90
2018-09-20T02:13:59.575Z,99.90
2018-09-20T02:15:04.229Z,99.90
2018-09-20T02:16:08.721Z,99.90
2018-09-20T02:17:13.304Z,99.90
2018-09-20T02:18:17.440Z,99.90
2018-09-20T02:19:21.667Z,99.90
2018-09-20T02:20:26.014Z,99.90
2018-09-20T02:21:30.215Z,99.90
2018-09-20T02:22:34.606Z,99.90
2018-09-20T02:23:39.088Z,99.90
2018-09-20T02:24:43.653Z,99.90
2018-09-20T02:25:48.281Z,99.90
2018-09-20T02:26:52.553Z,99.90
2018-09-20T02:27:56.700Z,99.90
2018-09-20T02:29:01.342Z,99.90
2018-09-20T02:30:05.678Z,99.90
2018-09-20T02:31:10.298Z,99.90
2018-09-20T02:32:14.527Z,99.90
2018-09-20T02:33:18.675Z,99.90
2018-09-20T02:34:23.107Z,99.90
2018-09-20T02:35:27.378Z,99.90
2018-09-20T02:36:31.770Z,99.90
2018-09-20T02:37:35.883Z,99.90
2018-09-20T02:38:40.119Z,99.90
2018-09-20T02:39:44.373Z,99.90
2018-09-20T02:40:48.894Z,99.90
2018-09-20T02:41:53.301Z,99.90
2018-09-20T02:42:57.562Z,99.90
2018-09-20T02:44:01.794Z,99.90
2018-09-20T02:45:06.117Z,99.90
2018-09-20T02:46:10.236Z,99.90
2018-09-20T02:47:14.638Z,99.90
2018-09-20T02:48:19.209Z,99.90
2018-09-20T02:49:23.759Z,99.90
2018-09-20T02:50:28.153Z,99.90
2018-09-20T02:51:32.500Z,99.90
2018-09-20T02:52:36.893Z,99.90
2018-09-20T02:53:40.966Z,99.90
2018-09-20T02:54:45.133Z,99.90
2018-09-20T02:55:49.711Z,99.90
2018-09-20T02:56:53.874Z,99.90
2018-09-20T02:57:58.125Z,99.90
2018-09-20T02:59:02.634Z,99.90
2018-09-20T03:00:06.822Z,99.90
2018-09-20T03:01:10.965Z,99.90
2018-09-20T03:02:15.067Z,99.90
2018-09-20T03:03:19.580Z,99.90
2018-09-20T03:04:23.698Z,99.90
2018-09-20T03:05:28.357Z,99.90
2018-09-20T03:06:32.696Z,99.90
2018-09-20T03:07:36.981Z,99.90
2018-09-20T03:08:41.342Z,99.90
2018-09-20T03:09:45.474Z,99.90
2018-09-20T03:10:49.718Z,99.90
2018-09-20T03:11:54.227Z,99.90
2018-09-20T03:12:58.414Z,99.90
2018-09-20T03:14:02.891Z,99.90
2018-09-20T03:15:07.338Z,99.90
2018-09-20T03:16:11.774Z,99.90
2018-09-20T03:17:15.925Z,99.90
2018-09-20T03:18:20.171Z,99.90
2018-09-20T03:19:24.445Z,99.90
2018-09-20T03:20:28.527Z,99.90
2018-09-20T03:21:32.911Z,99.90
2018-09-20T03:22:37.325Z,99.90
2018-09-20T03:23:41.614Z,99.90
2018-09-20T03:24:45.733Z,99.90
2018-09-20T03:25:49.920Z,99.90
2018-09-20T03:26:54.281Z,99.90
2018-09-20T03:27:58.473Z,99.90
2018-09-20T03:29:03.257Z,99.90
2018-09-20T03:30:07.508Z,99.90
2018-09-20T03:31:11.915Z,99.90
2018-09-20T03:32:16.129Z,99.90
2018-09-20T03:33:20.202Z,99.90
2018-09-20T03:34:24.771Z,99.90
2018-09-20T03:35:29.355Z,99.90
2018-09-20T03:36:33.694Z,99.90
2018-09-20T03:37:38.438Z,99.90
2018-09-20T03:38:42.658Z,99.90
2018-09-20T03:39:46.881Z,99.90
2018-09-20T03:40:51.207Z,99.90
2018-09-20T03:41:55.730Z,99.90
2018-09-20T03:43:00.133Z,99.90
2018-09-20T03:44:04.237Z,99.90
2018-09-20T03:45:08.362Z,99.90
2018-09-20T03:46:12.501Z,99.90
2018-09-20T03:47:17.054Z,99.90
2018-09-20T03:48:21.262Z,99.90
2018-09-20T03:49:25.931Z,99.90
2018-09-20T03:50:30.056Z,99.90
2018-09-20T03:51:34.505Z,99.90
2018-09-20T03:52:38.617Z,99.90
2018-09-20T03:53:42.920Z,99.90
2018-09-20T03:54:47.306Z,99.90
2018-09-20T03:55:51.600Z,99.90
2018-09-20T03:56:56.013Z,99.90
2018-09-20T03:58:00.185Z,99.90
2018-09-20T03:59:04.381Z,99.90
2018-09-20T04:00:08.671Z,99.90
2018-09-20T04:01:13.216Z,99.90
2018-09-20T04:02:17.507Z,99.90
2018-09-20T04:03:21.917Z,99.90
2018-09-20T04:04:26.576Z,99.90
2018-09-20T04:05:30.958Z,99.90
2018-09-20T04:07:15.290Z,99.90
2018-09-20T04:08:19.950Z,99.90
2018-09-20T04:09:24.228Z,99.90
2018-09-20T04:10:28.635Z,99.90
2018-09-20T04:11:32.896Z,99.90
2018-09-20T04:12:36.994Z,99.90
2018-09-20T04:13:41.322Z,99.90
2018-09-20T04:14:45.594Z,99.90
2018-09-20T04:15:50.167Z,99.90
2018-09-20T04:16:54.632Z,99.90
2018-09-20T04:17:59.044Z,99.90
2018-09-20T04:19:03.526Z,99.90
2018-09-20T04:20:08.180Z,99.90
2018-09-20T04:21:12.409Z,99.90
2018-09-20T04:22:16.835Z,99.90
2018-09-20T04:23:21.376Z,99.90
2018-09-20T04:24:25.471Z,99.90
2018-09-20T04:25:29.738Z,99.90
2018-09-20T04:26:34.134Z,99.90
2018-09-20T04:27:38.316Z,99.90
2018-09-20T04:28:42.535Z,99.90
2018-09-20T04:29:46.614Z,99.90
2018-09-20T04:30:51.002Z,99.90
2018-09-20T04:31:55.389Z,99.90
2018-09-20T04:32:59.777Z,99.90
2018-09-20T04:34:04.025Z,99.90
2018-09-20T04:35:08.436Z,99.90
2018-09-20T04:36:12.625Z,99.90
2018-09-20T04:37:17.039Z,99.90
2018-09-20T04:38:21.281Z,99.90
2018-09-20T04:39:25.659Z,99.90
2018-09-20T04:40:30.238Z,99.90
2018-09-20T04:41:34.450Z,99.90
2018-09-20T04:42:39.009Z,99.90
2018-09-20T04:43:43.619Z,99.90
2018-09-20T04:44:47.869Z,99.90
2018-09-20T04:45:52.391Z,99.90
2018-09-20T04:46:56.752Z,99.90
2018-09-20T04:48:01.317Z,99.90
2018-09-20T04:49:05.633Z,99.90
2018-09-20T04:50:10.473Z,99.90
2018-09-20T04:51:14.801Z,99.90
2018-09-20T04:52:19.249Z,99.90
2018-09-20T04:53:23.946Z,99.90
2018-09-20T04:54:28.353Z,99.90
2018-09-20T04:55:32.473Z,99.90
2018-09-20T04:56:36.782Z,99.90
2018-09-20T04:57:41.107Z,99.90
2018-09-20T04:58:45.248Z,99.90
2018-09-20T04:59:49.470Z,99.90
2018-09-20T05:00:53.774Z,99.90
2018-09-20T05:01:58.114Z,99.90
2018-09-20T05:03:02.313Z,99.90
2018-09-20T05:04:07.767Z,99.90
2018-09-20T05:05:12.813Z,99.90
2018-09-20T05:06:19.068Z,99.90
2018-09-20T05:07:23.470Z,99.90
2018-09-20T05:08:27.866Z,99.90
2018-09-20T05:09:32.088Z,99.90
2018-09-20T05:10:36.483Z,99.90
2018-09-20T05:11:40.749Z,99.90
2018-09-20T05:12:45.287Z,99.90
2018-09-20T05:13:49.470Z,99.90
2018-09-20T05:14:53.636Z,99.90
2018-09-20T05:15:57.895Z,99.90
2018-09-20T05:17:02.337Z,99.90
2018-09-20T05:18:06.459Z,99.90
2018-09-20T05:19:10.790Z,99.90
2018-09-20T05:20:14.970Z,99.90
2018-09-20T05:21:19.150Z,99.90
2018-09-20T05:22:23.562Z,99.90
2018-09-20T05:23:28.035Z,99.90
2018-09-20T05:24:32.142Z,99.90
2018-09-20T05:25:36.297Z,99.90
2018-09-20T05:26:40.477Z,99.90
2018-09-20T05:27:44.850Z,99.90
2018-09-20T05:28:49.205Z,99.90
2018-09-20T05:29:53.517Z,99.90
2018-09-20T05:30:57.692Z,99.90
2018-09-20T05:32:01.964Z,99.90
2018-09-20T05:33:06.392Z,99.90
2018-09-20T05:34:10.549Z,99.90
2018-09-20T05:35:14.718Z,99.90
2018-09-20T05:36:19.486Z,99.90
2018-09-20T05:37:23.832Z,99.90
2018-09-20T05:38:27.998Z,99.90
2018-09-20T05:39:32.306Z,99.90
2018-09-20T05:40:36.474Z,99.90
2018-09-20T05:41:40.831Z,99.90
2018-09-20T05:42:45.064Z,99.90
2018-09-20T05:43:49.197Z,99.90
2018-09-20T05:44:53.322Z,99.90
2018-09-20T05:45:57.622Z,99.90
2018-09-20T05:47:01.956Z,99.90
2018-09-20T05:48:06.385Z,99.90
2018-09-20T05:49:10.832Z,99.90
2018-09-20T05:50:15.215Z,99.90
2018-09-20T05:51:19.339Z,99.90
2018-09-20T05:52:23.572Z,99.90
2018-09-20T05:53:27.934Z,99.90
2018-09-20T05:54:32.285Z,99.90
2018-09-20T05:55:36.769Z,99.90
2018-09-20T05:56:41.155Z,99.90
2018-09-20T05:57:45.312Z,99.90
2018-09-20T05:58:49.629Z,99.90
2018-09-20T05:59:54.025Z,99.90
2018-09-20T06:00:58.419Z,99.90
2018-09-20T06:02:02.753Z,99.90
2018-09-20T06:03:06.954Z,99.90
2018-09-20T06:04:11.386Z,99.90
2018-09-20T06:05:15.831Z,99.90
2018-09-20T06:06:20.083Z,99.90
2018-09-20T06:07:24.648Z,99.90
2018-09-20T06:08:28.952Z,99.90
2018-09-20T06:09:33.524Z,99.90
2018-09-20T06:10:37.891Z,99.90
2018-09-20T06:11:42.269Z,99.90
2018-09-20T06:12:46.601Z,99.90
2018-09-20T06:13:50.941Z,99.90
2018-09-20T06:14:55.272Z,99.90
2018-09-20T06:15:59.682Z,99.90
2018-09-20T06:17:04.063Z,99.90
2018-09-20T06:18:08.341Z,99.90
2018-09-20T06:19:12.751Z,99.90
2018-09-20T06:20:17.425Z,99.90
2018-09-20T06:21:21.779Z,99.90
2018-09-20T06:22:25.939Z,99.90
2018-09-20T06:23:30.244Z,99.90
2018-09-20T06:24:34.537Z,99.90
2018-09-20T06:25:38.679Z,99.90
2018-09-20T06:26:42.782Z,99.90
2018-09-20T06:27:46.995Z,99.90
2018-09-20T06:28:51.220Z,99.90
2018-09-20T06:29:55.685Z,99.90
2018-09-20T06:31:00.059Z,99.90
2018-09-20T06:32:04.694Z,99.90
2018-09-20T06:33:09.063Z,99.90
2018-09-20T06:34:13.230Z,99.90
2018-09-20T06:35:17.617Z,99.90
2018-09-20T06:36:22.053Z,99.90
2018-09-20T06:37:26.258Z,99.90
2018-09-20T06:38:30.522Z,99.90
2018-09-20T06:39:34.794Z,99.90
2018-09-20T06:40:39.226Z,99.90
2018-09-20T06:41:43.465Z,99.90
2018-09-20T06:42:47.851Z,99.90
2018-09-20T06:43:51.988Z,99.90
2018-09-20T06:44:56.330Z,99.90
2018-09-20T06:46:00.391Z,99.90
2018-09-20T06:47:04.609Z,99.90
2018-09-20T06:48:08.880Z,99.90
2018-09-20T06:49:13.073Z,99.90
2018-09-20T06:50:17.454Z,99.90
2018-09-20T06:51:21.558Z,99.90
2018-09-20T06:52:25.925Z,99.90
2018-09-20T06:53:30.062Z,99.90
2018-09-20T06:54:34.188Z,99.90
2018-09-20T06:55:38.480Z,99.90
2018-09-20T06:56:42.894Z,99.90
2018-09-20T06:57:47.048Z,99.90
2018-09-20T06:58:51.520Z,99.90
2018-09-20T06:59:55.764Z,99.90
2018-09-20T07:01:00.150Z,99.90
2018-09-20T07:02:04.516Z,99.90
2018-09-20T07:03:08.815Z,99.90
2018-09-20T07:04:13.072Z,99.90
2018-09-20T07:05:17.291Z,99.90
2018-09-20T07:06:21.823Z,99.90
2018-09-20T07:07:26.398Z,99.90
2018-09-20T07:08:30.636Z,99.90
2018-09-20T07:09:34.817Z,99.90
2018-09-20T07:10:39.215Z,99.90
2018-09-20T07:11:43.540Z,99.90
2018-09-20T07:12:47.929Z,99.90
2018-09-20T07:13:52.030Z,99.90
2018-09-20T07:14:56.366Z,99.90
2018-09-20T07:16:00.714Z,99.90
2018-09-20T07:17:05.218Z,99.90
2018-09-20T07:18:09.412Z,99.90
2018-09-20T07:19:13.702Z,99.90
2018-09-20T07:20:18.074Z,99.90
2018-09-20T07:21:22.507Z,99.90
2018-09-20T07:22:26.774Z,99.90
2018-09-20T07:23:30.908Z,99.90
2018-09-20T07:24:35.246Z,99.90
2018-09-20T07:25:39.655Z,99.90
2018-09-20T07:26:43.872Z,99.90
2018-09-20T07:27:48.195Z,99.90
2018-09-20T07:28:52.230Z,99.90
2018-09-20T07:29:56.320Z,99.90
2018-09-20T07:31:00.573Z,99.90
2018-09-20T07:32:04.869Z,99.90
2018-09-20T07:33:09.143Z,99.90
2018-09-20T07:34:13.833Z,99.90
2018-09-20T07:35:17.894Z,99.90
2018-09-20T07:36:22.194Z,99.90
2018-09-20T07:37:26.680Z,99.90
2018-09-20T07:38:31.090Z,99.90
2018-09-20T07:39:35.585Z,99.90
2018-09-20T07:40:40.056Z,99.90
2018-09-20T07:41:44.371Z,99.90
2018-09-20T07:42:48.575Z,99.90
2018-09-20T07:43:52.879Z,99.90
2018-09-20T07:44:57.003Z,99.90
2018-09-20T07:46:01.422Z,99.90
2018-09-20T07:47:05.584Z,99.90
2018-09-20T07:48:09.697Z,99.90
2018-09-20T07:49:13.863Z,99.90
2018-09-20T07:50:18.113Z,99.90
2018-09-20T07:51:22.388Z,99.90
2018-09-20T07:52:26.992Z,99.90
2018-09-20T07:53:31.213Z,99.90
2018-09-20T07:54:35.406Z,99.90
2018-09-20T07:55:39.685Z,99.90
2018-09-20T07:56:43.971Z,99.90
2018-09-20T07:57:48.308Z,99.90
2018-09-20T07:58:52.669Z,99.90
2018-09-20T07:59:57.291Z,99.90
2018-09-20T08:01:01.583Z,99.90
2018-09-20T08:02:06.168Z,99.90
2018-09-20T08:03:10.690Z,99.90
2018-09-20T08:04:14.933Z,99.90
2018-09-20T08:05:19.265Z,99.90
2018-09-20T08:06:23.437Z,99.90
2018-09-20T08:07:27.860Z,99.90
2018-09-20T08:08:31.958Z,99.90
2018-09-20T08:09:36.137Z,99.90
2018-09-20T08:10:40.374Z,99.90
2018-09-20T08:11:44.954Z,99.90
2018-09-20T08:12:49.241Z,99.90
2018-09-20T08:13:53.460Z,99.90
2018-09-20T08:14:57.598Z,99.90
2018-09-20T08:16:01.805Z,99.90
2018-09-20T08:17:06.069Z,99.90
2018-09-20T08:18:10.587Z,99.90
2018-09-20T08:19:14.832Z,99.90
2018-09-20T08:20:19.420Z,99.90
2018-09-20T08:21:23.954Z,99.90
2018-09-20T08:22:28.551Z,99.90
2018-09-20T08:23:32.703Z,99.90
2018-09-20T08:24:37.066Z,99.90
2018-09-20T08:25:41.398Z,99.90
2018-09-20T08:26:45.650Z,99.90
2018-09-20T08:27:50.188Z,99.90
2018-09-20T08:28:54.380Z,99.90
2018-09-20T08:29:58.754Z,99.90
2018-09-20T08:31:03.206Z,99.90
2018-09-20T08:32:08.070Z,99.90
2018-09-20T08:33:12.251Z,99.90
2018-09-20T08:34:16.425Z,99.90
2018-09-20T08:35:20.561Z,99.90
2018-09-20T08:36:25.118Z,99.90
2018-09-20T08:37:29.594Z,99.90
2018-09-20T08:38:34.058Z,99.90
2018-09-20T08:39:38.284Z,99.90
2018-09-20T08:40:42.577Z,99.90
2018-09-20T08:41:47.166Z,99.90
2018-09-20T08:42:51.534Z,99.90
2018-09-20T08:43:55.650Z,99.90
2018-09-20T08:44:59.794Z,99.90
2018-09-20T08:46:04.235Z,99.90
2018-09-20T08:47:08.749Z,99.90
2018-09-20T08:48:12.778Z,99.90
2018-09-20T08:49:17.106Z,99.90
2018-09-20T08:50:21.535Z,99.70
2018-09-20T08:51:25.895Z,99.90
2018-09-20T08:52:30.155Z,99.80
2018-09-20T08:53:34.489Z,99.70
2018-09-20T08:54:38.842Z,99.70
2018-09-20T08:55:43.142Z,99.90
2018-09-20T08:56:47.271Z,99.50
2018-09-20T08:57:51.460Z,99.40
2018-09-20T08:58:55.765Z,99.20
2018-09-20T09:00:00.260Z,99.10
2018-09-20T09:01:05.187Z,98.80
2018-09-20T09:02:09.372Z,98.70
2018-09-20T09:03:13.497Z,98.50
2018-09-20T09:04:17.882Z,98.10
2018-09-20T09:05:22.160Z,98.10
2018-09-20T09:06:26.290Z,98.10
2018-09-20T09:07:30.548Z,98.10
2018-09-20T09:08:34.908Z,98.20
2018-09-20T09:09:39.467Z,98.20
2018-09-20T09:10:43.833Z,98.20
2018-09-20T09:11:47.967Z,98.00
2018-09-20T09:12:52.282Z,98.00
2018-09-20T09:13:56.439Z,97.90
2018-09-20T09:15:00.857Z,97.80
2018-09-20T09:16:05.331Z,97.50
2018-09-20T09:17:09.774Z,97.20
2018-09-20T09:18:13.884Z,97.00
2018-09-20T09:19:18.009Z,97.00
2018-09-20T09:20:22.263Z,97.00
2018-09-20T09:21:26.718Z,96.70
2018-09-20T09:22:31.086Z,96.60
2018-09-20T09:23:35.245Z,96.60
2018-09-20T09:24:39.467Z,96.60
2018-09-20T09:25:43.633Z,96.70
2018-09-20T09:26:47.773Z,96.70
2018-09-20T09:27:51.906Z,96.30
2018-09-20T09:28:55.975Z,96.20
2018-09-20T09:30:00.567Z,96.10
2018-09-20T09:31:04.809Z,96.20
2018-09-20T09:32:09.079Z,96.10
2018-09-20T09:33:13.647Z,96.00
2018-09-20T09:34:18.133Z,96.00
2018-09-20T09:35:22.276Z,96.20
2018-09-20T09:36:26.629Z,95.60
2018-09-20T09:37:30.797Z,95.70
2018-09-20T09:38:35.168Z,95.40
2018-09-20T09:39:39.636Z,95.50
2018-09-20T09:40:43.946Z,95.80
2018-09-20T09:41:48.497Z,95.80
2018-09-20T09:42:52.773Z,95.40
2018-09-20T09:43:56.903Z,94.90
2018-09-20T09:45:01.075Z,94.70
2018-09-20T09:46:05.261Z,95.00
2018-09-20T09:47:09.419Z,94.80
2018-09-20T09:48:13.687Z,94.70
2018-09-20T09:49:17.805Z,94.80
2018-09-20T09:50:22.370Z,94.90
2018-09-20T09:51:26.716Z,95.00
2018-09-20T09:52:32.260Z,94.90
2018-09-20T09:53:36.675Z,94.90
2018-09-20T09:54:43.342Z,94.70
2018-09-20T09:55:47.955Z,94.70
2018-09-20T09:56:52.263Z,94.50
2018-09-20T09:57:56.509Z,94.50
2018-09-20T09:59:00.886Z,94.60
2018-09-20T10:00:05.788Z,95.00
2018-09-20T10:01:10.157Z,95.00
2018-09-20T10:02:14.359Z,95.00
2018-09-20T10:03:18.694Z,95.20
2018-09-20T10:04:22.960Z,95.20
2018-09-20T10:05:27.677Z,95.10
2018-09-20T10:06:31.887Z,94.80
2018-09-20T10:07:36.261Z,94.80
2018-09-20T10:08:40.588Z,94.80
2018-09-20T10:09:44.694Z,94.90
2018-09-20T10:10:49.036Z,94.60
2018-09-20T10:11:53.241Z,94.40
2018-09-20T10:12:57.500Z,94.30
2018-09-20T10:14:01.723Z,94.20
2018-09-20T10:15:06.018Z,94.40
2018-09-20T10:16:10.204Z,94.30
2018-09-20T10:17:14.344Z,94.00
2018-09-20T10:18:18.633Z,94.10
2018-09-20T10:19:22.994Z,94.30
2018-09-20T10:20:27.439Z,94.40
2018-09-20T10:21:31.496Z,94.60
2018-09-20T10:22:35.677Z,94.30
2018-09-20T10:23:39.745Z,94.30
2018-09-20T10:24:43.861Z,93.90
2018-09-20T10:25:48.100Z,94.10
2018-09-20T10:26:52.226Z,93.80
2018-09-20T10:27:56.444Z,94.00
2018-09-20T10:29:00.772Z,93.90
2018-09-20T10:30:06.061Z,93.90
2018-09-20T10:31:10.241Z,93.80
2018-09-20T10:32:14.359Z,93.70
2018-09-20T10:33:18.620Z,93.70
2018-09-20T10:34:22.777Z,93.60
2018-09-20T10:35:27.541Z,93.40
2018-09-20T10:36:31.825Z,93.40
2018-09-20T10:37:36.518Z,93.10
2018-09-20T10:38:40.742Z,93.10
2018-09-20T10:39:44.974Z,93.20
2018-09-20T10:40:49.214Z,93.20
2018-09-20T10:41:53.337Z,93.20
2018-09-20T10:42:57.840Z,93.20
2018-09-20T10:44:02.152Z,93.20
2018-09-20T10:45:06.432Z,93.40
2018-09-20T10:46:10.700Z,93.60
2018-09-20T10:47:14.934Z,93.50
2018-09-20T10:48:19.250Z,93.40
2018-09-20T10:49:23.789Z,93.30
2018-09-20T10:50:28.337Z,93.30
2018-09-20T10:51:32.614Z,93.30
2018-09-20T10:52:37.189Z,93.00
2018-09-20T10:53:41.419Z,92.40
2018-09-20T10:54:46.121Z,92.30
2018-09-20T10:55:50.538Z,92.20
2018-09-20T10:56:54.710Z,92.20
2018-09-20T10:57:58.982Z,92.10
2018-09-20T10:59:03.813Z,92.10
2018-09-20T11:00:08.049Z,92.10
2018-09-20T11:01:12.373Z,92.10
2018-09-20T11:02:16.588Z,92.40
2018-09-20T11:03:20.806Z,92.70
2018-09-20T11:04:25.002Z,92.30
2018-09-20T11:05:29.503Z,92.50
2018-09-20T11:06:33.905Z,91.80
2018-09-20T11:07:38.194Z,91.50
2018-09-20T11:08:42.354Z,91.60
2018-09-20T11:09:46.370Z,91.80
2018-09-20T11:10:50.796Z,91.90
2018-09-20T11:11:55.125Z,91.70
2018-09-20T11:12:59.453Z,91.90
2018-09-20T11:14:03.782Z,91.90
2018-09-20T11:15:07.914Z,91.90
2018-09-20T11:16:12.323Z,91.90
2018-09-20T11:17:16.433Z,91.60
2018-09-20T11:18:20.817Z,91.60
2018-09-20T11:19:25.024Z,91.50
2018-09-20T11:20:29.448Z,91.30
2018-09-20T11:21:33.608Z,91.10
2018-09-20T11:22:38.119Z,90.80
2018-09-20T11:23:42.540Z,90.70
2018-09-20T11:24:46.678Z,90.50
2018-09-20T11:25:51.020Z,90.10
2018-09-20T11:26:55.196Z,88.90
2018-09-20T11:27:59.359Z,88.90
2018-09-20T11:29:03.765Z,89.00
2018-09-20T11:30:08.035Z,89.10
2018-09-20T11:31:12.256Z,87.70
2018-09-20T11:32:16.685Z,88.30
2018-09-20T11:33:20.782Z,88.00
2018-09-20T11:34:24.991Z,87.90
2018-09-20T11:35:29.471Z,88.00
2018-09-20T11:36:33.684Z,88.20
2018-09-20T11:37:38.180Z,89.00
2018-09-20T11:38:42.531Z,89.60
2018-09-20T11:39:46.805Z,90.00
2018-09-20T11:40:51.328Z,90.20
2018-09-20T11:41:55.662Z,90.10
2018-09-20T11:43:00.034Z,90.30
2018-09-20T11:44:04.327Z,90.40
2018-09-20T11:45:08.584Z,90.50
2018-09-20T11:46:12.843Z,90.50
2018-09-20T11:47:17.115Z,89.80
2018-09-20T11:48:21.440Z,89.00
2018-09-20T11:49:25.718Z,89.40
2018-09-20T11:50:30.089Z,89.50
2018-09-20T11:51:34.506Z,90.00
2018-09-20T11:52:38.826Z,90.20
2018-09-20T11:53:43.154Z,90.50
2018-09-20T11:54:47.509Z,90.10
2018-09-20T11:55:51.919Z,90.20
2018-09-20T11:56:56.177Z,90.00
2018-09-20T11:58:00.294Z,90.40
2018-09-20T11:59:04.678Z,90.60
2018-09-20T12:00:09.070Z,90.90
2018-09-20T12:01:13.575Z,90.40
2018-09-20T12:02:17.749Z,90.60
2018-09-20T12:03:21.835Z,90.80
2018-09-20T12:04:26.096Z,91.30
2018-09-20T12:05:30.668Z,91.30
2018-09-20T12:06:34.819Z,91.40
2018-09-20T12:07:39.192Z,92.10
2018-09-20T12:08:43.686Z,91.60
2018-09-20T12:09:47.854Z,92.00
2018-09-20T12:10:52.119Z,91.90
2018-09-20T12:11:56.286Z,91.80
2018-09-20T12:13:00.637Z,91.70
2018-09-20T12:14:04.943Z,91.60
2018-09-20T12:15:09.051Z,91.80
2018-09-20T12:16:13.302Z,92.30
2018-09-20T12:17:17.720Z,92.30
2018-09-20T12:18:21.889Z,92.00
2018-09-20T12:19:26.443Z,91.70
2018-09-20T12:20:30.770Z,91.50
2018-09-20T12:21:35.049Z,91.00
2018-09-20T12:22:39.310Z,90.80
2018-09-20T12:23:43.594Z,90.60
2018-09-20T12:24:48.131Z,90.20
2018-09-20T12:25:52.309Z,90.10
2018-09-20T12:26:56.581Z,90.10
2018-09-20T12:28:00.772Z,90.10
2018-09-20T12:29:05.101Z,90.00
2018-09-20T12:30:09.563Z,90.40
2018-09-20T12:31:13.663Z,90.10
2018-09-20T12:32:17.876Z,89.10
2018-09-20T12:33:22.387Z,89.50
2018-09-20T12:34:26.955Z,89.40
2018-09-20T12:35:31.053Z,89.00
2018-09-20T12:36:35.423Z,89.20
2018-09-20T12:37:39.772Z,89.50
2018-09-20T12:38:44.008Z,90.00
2018-09-20T12:39:48.068Z,88.90
2018-09-20T12:40:52.297Z,89.10
2018-09-20T12:41:56.752Z,88.00
2018-09-20T12:43:00.932Z,88.00
2018-09-20T12:44:05.160Z,88.40
2018-09-20T12:45:09.303Z,88.40
2018-09-20T12:46:13.521Z,88.70
2018-09-20T12:47:17.682Z,88.30
2018-09-20T12:48:22.216Z,87.10
2018-09-20T12:49:26.426Z,86.10
2018-09-20T12:50:30.800Z,86.60
2018-09-20T12:51:35.689Z,86.00
2018-09-20T12:52:39.838Z,85.10
2018-09-20T12:53:44.273Z,85.10
2018-09-20T12:54:48.632Z,84.90
2018-09-20T12:55:52.826Z,84.90
2018-09-20T12:56:57.190Z,84.80
2018-09-20T12:58:01.559Z,84.80
2018-09-20T12:59:05.720Z,84.60
2018-09-20T13:00:10.604Z,84.40
2018-09-20T13:01:15.153Z,84.00
2018-09-20T13:02:19.690Z,84.00
2018-09-20T13:03:23.788Z,83.70
2018-09-20T13:04:28.421Z,83.00
2018-09-20T13:05:32.558Z,82.50
2018-09-20T13:06:36.746Z,82.50
2018-09-20T13:07:41.199Z,81.50
2018-09-20T13:08:45.461Z,80.90
2018-09-20T13:09:49.693Z,80.40
2018-09-20T13:10:53.944Z,79.90
2018-09-20T13:11:58.038Z,79.70
2018-09-20T13:13:02.537Z,79.90
2018-09-20T13:14:06.772Z,79.70
2018-09-20T13:15:11.007Z,79.50
2018-09-20T13:16:15.191Z,79.20
2018-09-20T13:17:19.306Z,78.60
2018-09-20T13:18:23.746Z,78.00
2018-09-20T13:19:28.128Z,77.60
2018-09-20T13:20:32.514Z,77.40
2018-09-20T13:21:36.959Z,76.90
2018-09-20T13:22:41.279Z,77.00
2018-09-20T13:23:45.394Z,76.60
2018-09-20T13:24:49.830Z,75.80
2018-09-20T13:25:54.346Z,74.70
2018-09-20T13:26:58.659Z,73.90
2018-09-20T13:28:03.075Z,73.40
2018-09-20T13:29:07.509Z,72.60
2018-09-20T13:30:11.854Z,72.30
2018-09-20T13:31:16.238Z,72.50
2018-09-20T13:32:20.742Z,71.50
2018-09-20T13:33:25.101Z,71.00
2018-09-20T13:34:29.315Z,70.70
2018-09-20T13:35:33.540Z,70.20
2018-09-20T13:36:37.685Z,69.50
2018-09-20T13:37:42.354Z,69.70
2018-09-20T13:38:46.412Z,68.80
2018-09-20T13:39:50.719Z,68.00
2018-09-20T13:40:55.014Z,67.70
2018-09-20T13:41:59.245Z,66.50
2018-09-20T13:43:03.498Z,66.50
2018-09-20T13:44:07.899Z,66.50
2018-09-20T13:45:11.965Z,65.00
2018-09-20T13:46:16.130Z,64.30
2018-09-20T13:47:20.670Z,63.90
2018-09-20T13:48:24.883Z,63.70
2018-09-20T13:49:29.142Z,63.00